sensor_id;sensor_type;location;lat;lon;timestamp;temperature;humidity
15359;DHT22;7779;49.596;11.070;2023-04-30T00:01:43;13.20;61.30
15359;DHT22;7779;49.596;11.070;2023-04-30T00:04:09;13.10;61.40
15359;DHT22;7779;49.596;11.070;2023-04-30T00:06:34;13.10;61.40
15359;DHT22;7779;49.596;11.070;2023-04-30T00:09:00;13.10;61.50
15359;DHT22;7779;49.596;11.070;2023-04-30T00:11:26;13.10;61.60
15359;DHT22;7779;49.596;11.070;2023-04-30T00:13:52;13.10;61.70
15359;DHT22;7779;49.596;11.070;2023-04-30T00:16:18;13.10;61.70
15359;DHT22;7779;49.596;11.070;2023-04-30T00:18:44;13.10;61.80
15359;DHT22;7779;49.596;11.070;2023-04-30T00:21:10;13.00;61.70
15359;DHT22;7779;49.596;11.070;2023-04-30T00:23:36;13.10;61.90
15359;DHT22;7779;49.596;11.070;2023-04-30T00:26:02;13.00;61.80
15359;DHT22;7779;49.596;11.070;2023-04-30T00:28:27;13.00;62.00
15359;DHT22;7779;49.596;11.070;2023-04-30T00:30:53;13.00;62.00
15359;DHT22;7779;49.596;11.070;2023-04-30T00:33:19;13.00;62.10
15359;DHT22;7779;49.596;11.070;2023-04-30T00:35:46;13.00;62.20
15359;DHT22;7779;49.596;11.070;2023-04-30T00:38:11;13.00;62.30
15359;DHT22;7779;49.596;11.070;2023-04-30T00:40:39;12.90;62.30
15359;DHT22;7779;49.596;11.070;2023-04-30T00:43:06;12.90;62.30
15359;DHT22;7779;49.596;11.070;2023-04-30T00:45:32;12.90;62.30
15359;DHT22;7779;49.596;11.070;2023-04-30T00:47:58;12.90;62.40
15359;DHT22;7779;49.596;11.070;2023-04-30T00:50:24;12.90;62.50
15359;DHT22;7779;49.596;11.070;2023-04-30T00:52:50;12.90;62.60
15359;DHT22;7779;49.596;11.070;2023-04-30T00:55:16;12.80;62.50
15359;DHT22;7779;49.596;11.070;2023-04-30T00:57:42;12.80;62.50
15359;DHT22;7779;49.596;11.070;2023-04-30T01:00:08;12.80;62.60
15359;DHT22;7779;49.596;11.070;2023-04-30T01:02:39;12.70;62.70
15359;DHT22;7779;49.596;11.070;2023-04-30T01:05:06;12.80;62.90
15359;DHT22;7779;49.596;11.070;2023-04-30T01:07:35;12.70;62.80
15359;DHT22;7779;49.596;11.070;2023-04-30T01:10:14;12.70;63.10
15359;DHT22;7779;49.596;11.070;2023-04-30T01:12:56;12.70;63.20
15359;DHT22;7779;49.596;11.070;2023-04-30T01:15:53;12.70;63.90
15359;DHT22;7779;49.596;11.070;2023-04-30T01:18:34;12.70;64.00
15359;DHT22;7779;49.596;11.070;2023-04-30T01:21:07;12.60;63.50
15359;DHT22;7779;49.596;11.070;2023-04-30T01:29:48;12.60;62.60
15359;DHT22;7779;49.596;11.070;2023-04-30T01:32:15;12.60;63.20
15359;DHT22;7779;49.596;11.070;2023-04-30T01:34:40;12.60;63.10
15359;DHT22;7779;49.596;11.070;2023-04-30T01:37:23;12.60;63.20
15359;DHT22;7779;49.596;11.070;2023-04-30T01:40:07;12.60;63.00
15359;DHT22;7779;49.596;11.070;2023-04-30T01:49:03;12.60;63.40
15359;DHT22;7779;49.596;11.070;2023-04-30T01:51:43;12.60;63.40
15359;DHT22;7779;49.596;11.070;2023-04-30T01:54:36;12.50;63.50
15359;DHT22;7779;49.596;11.070;2023-04-30T01:57:17;12.50;64.00
15359;DHT22;7779;49.596;11.070;2023-04-30T01:59:50;12.50;63.50
15359;DHT22;7779;49.596;11.070;2023-04-30T02:02:17;12.50;63.30
15359;DHT22;7779;49.596;11.070;2023-04-30T02:04:43;12.50;63.40
15359;DHT22;7779;49.596;11.070;2023-04-30T02:07:08;12.50;63.40
15359;DHT22;7779;49.596;11.070;2023-04-30T02:09:34;12.50;63.40
15359;DHT22;7779;49.596;11.070;2023-04-30T02:12:00;12.50;63.30
15359;DHT22;7779;49.596;11.070;2023-04-30T02:14:29;12.50;63.50
15359;DHT22;7779;49.596;11.070;2023-04-30T02:16:55;12.50;63.50
15359;DHT22;7779;49.596;11.070;2023-04-30T02:19:21;12.50;63.50
15359;DHT22;7779;49.596;11.070;2023-04-30T02:21:47;12.50;64.10
15359;DHT22;7779;49.596;11.070;2023-04-30T02:24:13;12.50;63.50
15359;DHT22;7779;49.596;11.070;2023-04-30T02:26:38;12.50;63.60
15359;DHT22;7779;49.596;11.070;2023-04-30T02:29:04;12.50;63.60
15359;DHT22;7779;49.596;11.070;2023-04-30T02:31:30;12.40;63.60
15359;DHT22;7779;49.596;11.070;2023-04-30T02:33:56;12.40;63.50
15359;DHT22;7779;49.596;11.070;2023-04-30T02:36:22;12.50;63.60
15359;DHT22;7779;49.596;11.070;2023-04-30T02:38:47;12.40;63.50
15359;DHT22;7779;49.596;11.070;2023-04-30T02:41:13;12.40;63.50
15359;DHT22;7779;49.596;11.070;2023-04-30T02:43:39;12.40;63.50
15359;DHT22;7779;49.596;11.070;2023-04-30T02:46:04;12.40;63.60
15359;DHT22;7779;49.596;11.070;2023-04-30T02:48:30;12.40;63.60
15359;DHT22;7779;49.596;11.070;2023-04-30T02:50:56;12.40;63.60
15359;DHT22;7779;49.596;11.070;2023-04-30T02:53:22;12.40;63.70
15359;DHT22;7779;49.596;11.070;2023-04-30T02:55:47;12.40;63.60
15359;DHT22;7779;49.596;11.070;2023-04-30T02:58:13;12.40;63.70
15359;DHT22;7779;49.596;11.070;2023-04-30T03:00:39;12.40;63.60
15359;DHT22;7779;49.596;11.070;2023-04-30T03:03:05;12.40;63.70
15359;DHT22;7779;49.596;11.070;2023-04-30T03:05:30;12.40;63.70
15359;DHT22;7779;49.596;11.070;2023-04-30T03:07:56;12.40;63.80
15359;DHT22;7779;49.596;11.070;2023-04-30T03:10:22;12.30;63.90
15359;DHT22;7779;49.596;11.070;2023-04-30T03:12:47;12.30;63.70
15359;DHT22;7779;49.596;11.070;2023-04-30T03:15:13;12.30;63.70
15359;DHT22;7779;49.596;11.070;2023-04-30T03:17:39;12.30;63.80
15359;DHT22;7779;49.596;11.070;2023-04-30T03:20:06;12.30;63.70
15359;DHT22;7779;49.596;11.070;2023-04-30T03:22:32;12.30;63.80
15359;DHT22;7779;49.596;11.070;2023-04-30T03:24:58;12.30;63.80
15359;DHT22;7779;49.596;11.070;2023-04-30T03:27:24;12.30;63.80
15359;DHT22;7779;49.596;11.070;2023-04-30T03:29:49;12.30;63.30
15359;DHT22;7779;49.596;11.070;2023-04-30T03:32:15;12.30;63.90
15359;DHT22;7779;49.596;11.070;2023-04-30T03:34:41;12.20;63.80
15359;DHT22;7779;49.596;11.070;2023-04-30T03:37:06;12.20;63.80
15359;DHT22;7779;49.596;11.070;2023-04-30T03:39:32;12.20;63.90
15359;DHT22;7779;49.596;11.070;2023-04-30T03:41:58;12.30;64.10
15359;DHT22;7779;49.596;11.070;2023-04-30T03:44:26;12.30;64.10
15359;DHT22;7779;49.596;11.070;2023-04-30T03:46:51;12.20;64.10
15359;DHT22;7779;49.596;11.070;2023-04-30T03:49:17;12.20;64.10
15359;DHT22;7779;49.596;11.070;2023-04-30T03:51:43;12.20;64.10
15359;DHT22;7779;49.596;11.070;2023-04-30T03:54:09;12.20;64.20
15359;DHT22;7779;49.596;11.070;2023-04-30T03:56:35;12.20;64.30
15359;DHT22;7779;49.596;11.070;2023-04-30T03:59:02;12.20;64.20
15359;DHT22;7779;49.596;11.070;2023-04-30T04:01:30;12.20;64.30
15359;DHT22;7779;49.596;11.070;2023-04-30T04:03:56;12.20;64.40
15359;DHT22;7779;49.596;11.070;2023-04-30T04:06:22;12.20;64.40
15359;DHT22;7779;49.596;11.070;2023-04-30T04:08:47;12.20;64.30
15359;DHT22;7779;49.596;11.070;2023-04-30T04:11:13;12.20;64.40
15359;DHT22;7779;49.596;11.070;2023-04-30T04:13:39;12.10;64.50
15359;DHT22;7779;49.596;11.070;2023-04-30T04:16:05;12.10;64.50
15359;DHT22;7779;49.596;11.070;2023-04-30T04:18:33;12.10;64.50
15359;DHT22;7779;49.596;11.070;2023-04-30T04:20:58;12.10;64.60
15359;DHT22;7779;49.596;11.070;2023-04-30T04:23:26;12.10;64.60
15359;DHT22;7779;49.596;11.070;2023-04-30T04:25:52;12.10;64.60
15359;DHT22;7779;49.596;11.070;2023-04-30T04:28:19;12.10;64.70
15359;DHT22;7779;49.596;11.070;2023-04-30T04:30:45;12.10;65.20
15359;DHT22;7779;49.596;11.070;2023-04-30T04:33:11;12.10;64.90
15359;DHT22;7779;49.596;11.070;2023-04-30T04:35:37;12.10;64.90
15359;DHT22;7779;49.596;11.070;2023-04-30T04:38:03;12.10;64.90
15359;DHT22;7779;49.596;11.070;2023-04-30T04:40:30;12.10;65.00
15359;DHT22;7779;49.596;11.070;2023-04-30T04:42:56;12.10;65.00
15359;DHT22;7779;49.596;11.070;2023-04-30T04:45:21;12.10;65.10
15359;DHT22;7779;49.596;11.070;2023-04-30T04:47:49;12.10;65.10
15359;DHT22;7779;49.596;11.070;2023-04-30T04:50:15;12.10;65.00
15359;DHT22;7779;49.596;11.070;2023-04-30T04:52:41;12.10;65.00
15359;DHT22;7779;49.596;11.070;2023-04-30T04:55:07;12.10;65.70
15359;DHT22;7779;49.596;11.070;2023-04-30T04:57:35;12.10;64.90
15359;DHT22;7779;49.596;11.070;2023-04-30T05:00:00;12.20;65.10
15359;DHT22;7779;49.596;11.070;2023-04-30T05:02:26;12.20;65.00
15359;DHT22;7779;49.596;11.070;2023-04-30T05:04:52;12.20;64.90
15359;DHT22;7779;49.596;11.070;2023-04-30T05:07:18;12.20;64.90
15359;DHT22;7779;49.596;11.070;2023-04-30T05:09:45;12.20;64.80
15359;DHT22;7779;49.596;11.070;2023-04-30T05:12:15;12.20;64.70
15359;DHT22;7779;49.596;11.070;2023-04-30T05:14:40;12.20;64.60
15359;DHT22;7779;49.596;11.070;2023-04-30T05:17:07;12.20;64.50
15359;DHT22;7779;49.596;11.070;2023-04-30T05:19:33;12.20;64.50
15359;DHT22;7779;49.596;11.070;2023-04-30T05:21:58;12.20;64.50
15359;DHT22;7779;49.596;11.070;2023-04-30T05:24:26;12.20;64.50
15359;DHT22;7779;49.596;11.070;2023-04-30T05:26:52;12.20;64.60
15359;DHT22;7779;49.596;11.070;2023-04-30T05:29:18;12.30;64.90
15359;DHT22;7779;49.596;11.070;2023-04-30T05:31:44;12.40;64.90
15359;DHT22;7779;49.596;11.070;2023-04-30T05:34:09;12.40;64.70
15359;DHT22;7779;49.596;11.070;2023-04-30T05:36:35;12.50;64.50
15359;DHT22;7779;49.596;11.070;2023-04-30T05:39:01;12.50;64.30
15359;DHT22;7779;49.596;11.070;2023-04-30T05:41:27;12.60;64.10
15359;DHT22;7779;49.596;11.070;2023-04-30T05:43:52;12.60;64.00
15359;DHT22;7779;49.596;11.070;2023-04-30T05:46:18;12.60;64.00
15359;DHT22;7779;49.596;11.070;2023-04-30T05:48:44;12.70;64.10
15359;DHT22;7779;49.596;11.070;2023-04-30T05:51:09;12.70;64.10
15359;DHT22;7779;49.596;11.070;2023-04-30T05:53:35;12.80;64.30
15359;DHT22;7779;49.596;11.070;2023-04-30T05:56:01;12.90;64.50
15359;DHT22;7779;49.596;11.070;2023-04-30T05:58:27;13.00;64.70
15359;DHT22;7779;49.596;11.070;2023-04-30T06:00:53;13.10;64.70
15359;DHT22;7779;49.596;11.070;2023-04-30T06:03:19;13.20;64.70
15359;DHT22;7779;49.596;11.070;2023-04-30T06:05:45;13.30;64.70
15359;DHT22;7779;49.596;11.070;2023-04-30T06:08:11;13.50;64.80
15359;DHT22;7779;49.596;11.070;2023-04-30T06:10:37;13.60;64.60
15359;DHT22;7779;49.596;11.070;2023-04-30T06:13:04;13.70;64.50
15359;DHT22;7779;49.596;11.070;2023-04-30T06:15:30;13.90;64.50
15359;DHT22;7779;49.596;11.070;2023-04-30T06:17:57;14.10;64.50
15359;DHT22;7779;49.596;11.070;2023-04-30T06:20:23;14.30;64.50
15359;DHT22;7779;49.596;11.070;2023-04-30T06:22:48;14.50;64.10
15359;DHT22;7779;49.596;11.070;2023-04-30T06:25:14;14.70;63.70
15359;DHT22;7779;49.596;11.070;2023-04-30T06:27:40;14.80;63.20
15359;DHT22;7779;49.596;11.070;2023-04-30T06:30:06;15.00;62.90
15359;DHT22;7779;49.596;11.070;2023-04-30T06:32:33;15.10;62.50
15359;DHT22;7779;49.596;11.070;2023-04-30T06:34:59;15.20;62.10
15359;DHT22;7779;49.596;11.070;2023-04-30T06:37:24;15.30;61.80
15359;DHT22;7779;49.596;11.070;2023-04-30T06:39:50;15.40;61.70
15359;DHT22;7779;49.596;11.070;2023-04-30T06:42:16;15.50;61.60
15359;DHT22;7779;49.596;11.070;2023-04-30T06:44:41;15.60;61.40
15359;DHT22;7779;49.596;11.070;2023-04-30T06:47:07;15.70;61.10
15359;DHT22;7779;49.596;11.070;2023-04-30T06:49:33;15.80;60.50
15359;DHT22;7779;49.596;11.070;2023-04-30T06:51:59;15.90;60.80
15359;DHT22;7779;49.596;11.070;2023-04-30T06:54:25;16.00;60.60
15359;DHT22;7779;49.596;11.070;2023-04-30T06:56:52;16.00;60.20
15359;DHT22;7779;49.596;11.070;2023-04-30T06:59:18;16.10;60.00
15359;DHT22;7779;49.596;11.070;2023-04-30T07:01:43;16.10;59.70
15359;DHT22;7779;49.596;11.070;2023-04-30T07:04:10;16.20;59.40
15359;DHT22;7779;49.596;11.070;2023-04-30T07:06:36;16.20;59.40
15359;DHT22;7779;49.596;11.070;2023-04-30T07:09:02;16.30;58.60
15359;DHT22;7779;49.596;11.070;2023-04-30T07:11:28;16.30;59.10
15359;DHT22;7779;49.596;11.070;2023-04-30T07:13:53;16.30;58.90
15359;DHT22;7779;49.596;11.070;2023-04-30T07:16:19;16.40;58.80
15359;DHT22;7779;49.596;11.070;2023-04-30T07:18:45;16.40;58.60
15359;DHT22;7779;49.596;11.070;2023-04-30T07:21:13;16.40;56.10
15359;DHT22;7779;49.596;11.070;2023-04-30T07:23:39;16.50;58.20
15359;DHT22;7779;49.596;11.070;2023-04-30T07:26:05;16.50;58.20
15359;DHT22;7779;49.596;11.070;2023-04-30T07:28:31;16.50;56.80
15359;DHT22;7779;49.596;11.070;2023-04-30T07:30:57;16.60;56.50
15359;DHT22;7779;49.596;11.070;2023-04-30T07:33:23;16.50;57.80
15359;DHT22;7779;49.596;11.070;2023-04-30T07:35:49;16.60;57.60
15359;DHT22;7779;49.596;11.070;2023-04-30T07:38:15;16.60;57.70
15359;DHT22;7779;49.596;11.070;2023-04-30T07:40:43;16.60;57.00
15359;DHT22;7779;49.596;11.070;2023-04-30T07:43:09;16.60;57.10
15359;DHT22;7779;49.596;11.070;2023-04-30T07:45:36;16.60;57.00
15359;DHT22;7779;49.596;11.070;2023-04-30T07:48:01;16.70;56.90
15359;DHT22;7779;49.596;11.070;2023-04-30T07:50:27;16.70;56.90
15359;DHT22;7779;49.596;11.070;2023-04-30T07:52:58;16.70;56.90
15359;DHT22;7779;49.596;11.070;2023-04-30T07:55:24;16.70;56.90
15359;DHT22;7779;49.596;11.070;2023-04-30T07:57:49;16.80;57.00
15359;DHT22;7779;49.596;11.070;2023-04-30T08:00:15;16.80;56.70
15359;DHT22;7779;49.596;11.070;2023-04-30T08:02:42;16.80;56.60
15359;DHT22;7779;49.596;11.070;2023-04-30T08:05:12;16.90;56.70
15359;DHT22;7779;49.596;11.070;2023-04-30T08:07:38;17.00;56.80
15359;DHT22;7779;49.596;11.070;2023-04-30T08:10:04;17.10;56.90
15359;DHT22;7779;49.596;11.070;2023-04-30T08:12:30;17.20;57.00
15359;DHT22;7779;49.596;11.070;2023-04-30T08:15:03;17.30;56.90
15359;DHT22;7779;49.596;11.070;2023-04-30T08:17:31;17.40;56.10
15359;DHT22;7779;49.596;11.070;2023-04-30T08:19:57;17.40;56.20
15359;DHT22;7779;49.596;11.070;2023-04-30T08:22:23;17.50;56.00
15359;DHT22;7779;49.596;11.070;2023-04-30T08:24:49;17.50;55.70
15359;DHT22;7779;49.596;11.070;2023-04-30T08:27:15;17.60;55.40
15359;DHT22;7779;49.596;11.070;2023-04-30T08:29:41;17.60;55.00
15359;DHT22;7779;49.596;11.070;2023-04-30T08:32:07;17.50;54.40
15359;DHT22;7779;49.596;11.070;2023-04-30T08:34:33;17.50;54.60
15359;DHT22;7779;49.596;11.070;2023-04-30T08:36:59;17.60;54.80
15359;DHT22;7779;49.596;11.070;2023-04-30T08:39:26;17.60;54.50
15359;DHT22;7779;49.596;11.070;2023-04-30T08:41:55;17.60;54.70
15359;DHT22;7779;49.596;11.070;2023-04-30T08:44:22;17.60;53.80
15359;DHT22;7779;49.596;11.070;2023-04-30T08:46:53;17.60;54.50
15359;DHT22;7779;49.596;11.070;2023-04-30T08:49:23;17.60;53.40
15359;DHT22;7779;49.596;11.070;2023-04-30T08:51:50;17.60;53.30
15359;DHT22;7779;49.596;11.070;2023-04-30T08:54:17;17.50;53.30
15359;DHT22;7779;49.596;11.070;2023-04-30T08:56:45;17.50;52.30
15359;DHT22;7779;49.596;11.070;2023-04-30T08:59:12;17.50;52.90
15359;DHT22;7779;49.596;11.070;2023-04-30T09:01:38;17.40;52.90
15359;DHT22;7779;49.596;11.070;2023-04-30T09:04:05;17.40;52.90
15359;DHT22;7779;49.596;11.070;2023-04-30T09:06:32;17.40;52.90
15359;DHT22;7779;49.596;11.070;2023-04-30T09:09:15;17.30;52.90
15359;DHT22;7779;49.596;11.070;2023-04-30T09:11:41;17.40;51.40
15359;DHT22;7779;49.596;11.070;2023-04-30T09:14:07;17.40;52.70
15359;DHT22;7779;49.596;11.070;2023-04-30T09:16:47;17.40;52.90
15359;DHT22;7779;49.596;11.070;2023-04-30T09:19:30;17.40;51.50
15359;DHT22;7779;49.596;11.070;2023-04-30T09:21:56;17.40;51.00
15359;DHT22;7779;49.596;11.070;2023-04-30T09:24:22;17.40;51.90
15359;DHT22;7779;49.596;11.070;2023-04-30T09:26:49;17.40;52.10
15359;DHT22;7779;49.596;11.070;2023-04-30T09:29:16;17.40;52.10
15359;DHT22;7779;49.596;11.070;2023-04-30T09:31:43;17.40;50.60
15359;DHT22;7779;49.596;11.070;2023-04-30T09:34:11;17.40;52.20
15359;DHT22;7779;49.596;11.070;2023-04-30T09:36:51;17.40;52.20
15359;DHT22;7779;49.596;11.070;2023-04-30T09:39:19;17.50;50.80
15359;DHT22;7779;49.596;11.070;2023-04-30T09:41:45;17.50;49.50
15359;DHT22;7779;49.596;11.070;2023-04-30T09:44:27;17.60;51.80
15359;DHT22;7779;49.596;11.070;2023-04-30T09:46:55;17.70;50.70
15359;DHT22;7779;49.596;11.070;2023-04-30T09:49:22;17.80;51.80
15359;DHT22;7779;49.596;11.070;2023-04-30T09:51:55;17.80;51.80
15359;DHT22;7779;49.596;11.070;2023-04-30T09:54:28;17.90;51.30
15359;DHT22;7779;49.596;11.070;2023-04-30T09:57:00;18.00;51.90
15359;DHT22;7779;49.596;11.070;2023-04-30T09:59:29;18.10;51.80
15359;DHT22;7779;49.596;11.070;2023-04-30T10:02:05;18.20;51.90
15359;DHT22;7779;49.596;11.070;2023-04-30T10:04:36;18.40;51.90
15359;DHT22;7779;49.596;11.070;2023-04-30T10:07:17;18.50;51.30
15359;DHT22;7779;49.596;11.070;2023-04-30T10:09:49;18.60;49.10
15359;DHT22;7779;49.596;11.070;2023-04-30T10:12:42;18.70;50.50
15359;DHT22;7779;49.596;11.070;2023-04-30T10:15:19;18.70;49.90
15359;DHT22;7779;49.596;11.070;2023-04-30T10:18:01;18.80;50.60
15359;DHT22;7779;49.596;11.070;2023-04-30T10:20:34;18.80;48.50
15359;DHT22;7779;49.596;11.070;2023-04-30T10:23:04;18.90;50.00
15359;DHT22;7779;49.596;11.070;2023-04-30T10:25:31;18.80;50.00
15359;DHT22;7779;49.596;11.070;2023-04-30T10:27:57;18.90;49.80
15359;DHT22;7779;49.596;11.070;2023-04-30T10:30:23;19.00;49.90
15359;DHT22;7779;49.596;11.070;2023-04-30T10:35:48;19.10;48.60
15359;DHT22;7779;49.596;11.070;2023-04-30T10:38:26;19.20;49.30
15359;DHT22;7779;49.596;11.070;2023-04-30T10:40:58;19.20;49.70
15359;DHT22;7779;49.596;11.070;2023-04-30T10:43:26;19.30;49.40
15359;DHT22;7779;49.596;11.070;2023-04-30T10:45:56;19.40;49.30
15359;DHT22;7779;49.596;11.070;2023-04-30T10:48:23;19.40;48.90
15359;DHT22;7779;49.596;11.070;2023-04-30T10:50:56;19.50;49.20
15359;DHT22;7779;49.596;11.070;2023-04-30T10:53:23;19.60;48.50
15359;DHT22;7779;49.596;11.070;2023-04-30T10:55:56;19.70;49.10
15359;DHT22;7779;49.596;11.070;2023-04-30T10:58:27;19.90;48.80
15359;DHT22;7779;49.596;11.070;2023-04-30T11:01:13;20.00;46.50
15359;DHT22;7779;49.596;11.070;2023-04-30T11:06:49;20.20;48.70
15359;DHT22;7779;49.596;11.070;2023-04-30T11:09:40;20.30;47.00
15359;DHT22;7779;49.596;11.070;2023-04-30T11:12:11;20.30;46.40
15359;DHT22;7779;49.596;11.070;2023-04-30T11:15:11;20.40;47.90
15359;DHT22;7779;49.596;11.070;2023-04-30T11:17:38;20.50;46.80
15359;DHT22;7779;49.596;11.070;2023-04-30T11:20:04;20.50;47.40
15359;DHT22;7779;49.596;11.070;2023-04-30T11:22:30;20.50;46.80
15359;DHT22;7779;49.596;11.070;2023-04-30T11:25:08;20.50;46.10
15359;DHT22;7779;49.596;11.070;2023-04-30T11:27:37;20.50;45.60
15359;DHT22;7779;49.596;11.070;2023-04-30T11:30:17;20.40;46.10
15359;DHT22;7779;49.596;11.070;2023-04-30T11:32:45;20.40;44.50
15359;DHT22;7779;49.596;11.070;2023-04-30T11:35:14;20.40;45.00
15359;DHT22;7779;49.596;11.070;2023-04-30T11:37:43;20.30;45.10
15359;DHT22;7779;49.596;11.070;2023-04-30T11:40:11;20.40;45.20
15359;DHT22;7779;49.596;11.070;2023-04-30T11:42:40;20.40;45.10
15359;DHT22;7779;49.596;11.070;2023-04-30T11:45:15;20.40;44.70
15359;DHT22;7779;49.596;11.070;2023-04-30T11:47:44;20.40;44.10
15359;DHT22;7779;49.596;11.070;2023-04-30T11:50:15;20.40;44.60
15359;DHT22;7779;49.596;11.070;2023-04-30T11:52:48;20.40;44.40
15359;DHT22;7779;49.596;11.070;2023-04-30T11:55:21;20.50;44.30
15359;DHT22;7779;49.596;11.070;2023-04-30T11:57:55;20.50;44.30
15359;DHT22;7779;49.596;11.070;2023-04-30T12:00:28;20.60;43.20
15359;DHT22;7779;49.596;11.070;2023-04-30T12:02:56;20.60;43.60
15359;DHT22;7779;49.596;11.070;2023-04-30T12:05:26;20.60;43.40
15359;DHT22;7779;49.596;11.070;2023-04-30T12:08:03;20.60;43.50
15359;DHT22;7779;49.596;11.070;2023-04-30T12:10:34;20.60;42.20
15359;DHT22;7779;49.596;11.070;2023-04-30T12:13:01;20.60;43.40
15359;DHT22;7779;49.596;11.070;2023-04-30T12:15:27;20.60;43.40
15359;DHT22;7779;49.596;11.070;2023-04-30T12:17:57;20.60;43.40
15359;DHT22;7779;49.596;11.070;2023-04-30T12:20:28;20.60;43.10
15359;DHT22;7779;49.596;11.070;2023-04-30T12:22:56;20.50;42.80
15359;DHT22;7779;49.596;11.070;2023-04-30T12:25:23;20.50;43.10
15359;DHT22;7779;49.596;11.070;2023-04-30T12:27:52;20.50;43.00
15359;DHT22;7779;49.596;11.070;2023-04-30T12:30:20;20.50;42.80
15359;DHT22;7779;49.596;11.070;2023-04-30T12:32:49;20.50;42.90
15359;DHT22;7779;49.596;11.070;2023-04-30T12:35:18;20.40;43.00
15359;DHT22;7779;49.596;11.070;2023-04-30T12:37:50;20.40;43.00
15359;DHT22;7779;49.596;11.070;2023-04-30T12:40:21;20.40;42.70
15359;DHT22;7779;49.596;11.070;2023-04-30T12:43:02;20.40;42.80
15359;DHT22;7779;49.596;11.070;2023-04-30T12:45:49;20.40;42.60
15359;DHT22;7779;49.596;11.070;2023-04-30T12:48:21;20.40;42.20
15359;DHT22;7779;49.596;11.070;2023-04-30T12:50:59;20.40;43.30
15359;DHT22;7779;49.596;11.070;2023-04-30T12:53:27;20.40;42.80
15359;DHT22;7779;49.596;11.070;2023-04-30T12:58:39;20.40;41.10
15359;DHT22;7779;49.596;11.070;2023-04-30T13:01:09;20.40;42.50
15359;DHT22;7779;49.596;11.070;2023-04-30T13:03:38;20.30;42.60
15359;DHT22;7779;49.596;11.070;2023-04-30T13:06:04;20.30;42.60
15359;DHT22;7779;49.596;11.070;2023-04-30T13:08:31;20.30;42.40
15359;DHT22;7779;49.596;11.070;2023-04-30T13:10:57;20.20;42.30
15359;DHT22;7779;49.596;11.070;2023-04-30T13:13:23;20.20;41.90
15359;DHT22;7779;49.596;11.070;2023-04-30T13:15:49;20.10;42.20
15359;DHT22;7779;49.596;11.070;2023-04-30T13:18:15;20.10;41.90
15359;DHT22;7779;49.596;11.070;2023-04-30T13:20:41;20.10;42.10
15359;DHT22;7779;49.596;11.070;2023-04-30T13:23:09;20.10;42.20
15359;DHT22;7779;49.596;11.070;2023-04-30T13:25:36;20.10;42.20
15359;DHT22;7779;49.596;11.070;2023-04-30T13:28:03;20.10;42.10
15359;DHT22;7779;49.596;11.070;2023-04-30T13:30:28;20.20;42.10
15359;DHT22;7779;49.596;11.070;2023-04-30T13:32:54;20.20;42.20
15359;DHT22;7779;49.596;11.070;2023-04-30T13:35:20;20.30;42.00
15359;DHT22;7779;49.596;11.070;2023-04-30T13:37:46;20.30;42.10
15359;DHT22;7779;49.596;11.070;2023-04-30T13:40:14;20.40;42.00
15359;DHT22;7779;49.596;11.070;2023-04-30T13:42:41;20.40;42.00
15359;DHT22;7779;49.596;11.070;2023-04-30T13:45:07;20.50;42.10
15359;DHT22;7779;49.596;11.070;2023-04-30T13:47:34;20.60;42.00
15359;DHT22;7779;49.596;11.070;2023-04-30T13:50:01;20.60;41.80
15359;DHT22;7779;49.596;11.070;2023-04-30T13:52:27;20.80;42.00
15359;DHT22;7779;49.596;11.070;2023-04-30T13:54:53;21.00;41.90
15359;DHT22;7779;49.596;11.070;2023-04-30T13:57:19;21.10;41.80
15359;DHT22;7779;49.596;11.070;2023-04-30T13:59:44;21.20;41.60
15359;DHT22;7779;49.596;11.070;2023-04-30T14:02:11;21.20;40.00
15359;DHT22;7779;49.596;11.070;2023-04-30T14:04:36;21.30;41.20
15359;DHT22;7779;49.596;11.070;2023-04-30T14:07:03;21.30;40.60
15359;DHT22;7779;49.596;11.070;2023-04-30T14:09:29;21.30;40.40
15359;DHT22;7779;49.596;11.070;2023-04-30T14:11:55;21.30;40.10
15359;DHT22;7779;49.596;11.070;2023-04-30T14:14:24;21.20;40.00
15359;DHT22;7779;49.596;11.070;2023-04-30T14:16:51;21.20;40.00
15359;DHT22;7779;49.596;11.070;2023-04-30T14:19:18;21.20;37.80
15359;DHT22;7779;49.596;11.070;2023-04-30T14:21:44;21.20;39.60
15359;DHT22;7779;49.596;11.070;2023-04-30T14:24:11;21.20;39.50
15359;DHT22;7779;49.596;11.070;2023-04-30T14:26:41;21.20;39.30
15359;DHT22;7779;49.596;11.070;2023-04-30T14:29:08;21.10;40.00
15359;DHT22;7779;49.596;11.070;2023-04-30T14:31:33;21.10;39.50
15359;DHT22;7779;49.596;11.070;2023-04-30T14:33:59;21.10;39.20
15359;DHT22;7779;49.596;11.070;2023-04-30T14:36:25;21.00;39.20
15359;DHT22;7779;49.596;11.070;2023-04-30T14:38:52;21.00;39.70
15359;DHT22;7779;49.596;11.070;2023-04-30T14:41:18;21.00;39.30
15359;DHT22;7779;49.596;11.070;2023-04-30T14:43:43;20.90;39.30
15359;DHT22;7779;49.596;11.070;2023-04-30T14:46:09;21.00;39.40
15359;DHT22;7779;49.596;11.070;2023-04-30T14:48:36;21.00;39.40
15359;DHT22;7779;49.596;11.070;2023-04-30T14:51:02;21.00;39.50
15359;DHT22;7779;49.596;11.070;2023-04-30T14:53:28;21.00;39.40
15359;DHT22;7779;49.596;11.070;2023-04-30T14:55:54;21.00;38.90
15359;DHT22;7779;49.596;11.070;2023-04-30T14:58:20;21.00;39.10
15359;DHT22;7779;49.596;11.070;2023-04-30T15:00:46;21.00;38.00
15359;DHT22;7779;49.596;11.070;2023-04-30T15:03:15;20.90;39.30
15359;DHT22;7779;49.596;11.070;2023-04-30T15:05:41;20.90;39.00
15359;DHT22;7779;49.596;11.070;2023-04-30T15:08:07;20.90;39.00
15359;DHT22;7779;49.596;11.070;2023-04-30T15:10:33;20.90;39.10
15359;DHT22;7779;49.596;11.070;2023-04-30T15:13:01;20.80;39.10
15359;DHT22;7779;49.596;11.070;2023-04-30T15:15:27;20.80;39.10
15359;DHT22;7779;49.596;11.070;2023-04-30T15:17:57;20.70;38.80
15359;DHT22;7779;49.596;11.070;2023-04-30T15:20:23;20.70;38.60
15359;DHT22;7779;49.596;11.070;2023-04-30T15:22:49;20.70;38.80
15359;DHT22;7779;49.596;11.070;2023-04-30T15:25:15;20.60;38.80
15359;DHT22;7779;49.596;11.070;2023-04-30T15:27:42;20.60;38.70
15359;DHT22;7779;49.596;11.070;2023-04-30T15:30:08;20.50;38.40
15359;DHT22;7779;49.596;11.070;2023-04-30T15:32:35;20.50;38.60
15359;DHT22;7779;49.596;11.070;2023-04-30T15:35:01;20.50;38.60
15359;DHT22;7779;49.596;11.070;2023-04-30T15:37:27;20.50;38.80
15359;DHT22;7779;49.596;11.070;2023-04-30T15:39:53;20.50;38.80
15359;DHT22;7779;49.596;11.070;2023-04-30T15:42:18;20.50;38.90
15359;DHT22;7779;49.596;11.070;2023-04-30T15:44:44;20.50;38.80
15359;DHT22;7779;49.596;11.070;2023-04-30T15:47:10;20.50;38.90
15359;DHT22;7779;49.596;11.070;2023-04-30T15:49:37;20.50;38.90
15359;DHT22;7779;49.596;11.070;2023-04-30T15:52:02;20.50;38.90
15359;DHT22;7779;49.596;11.070;2023-04-30T15:54:28;20.50;39.00
15359;DHT22;7779;49.596;11.070;2023-04-30T15:56:54;20.50;38.90